sensor_id;sensor_type;location;lat;lon;timestamp;P1;durP1;ratioP1;P2;durP2;ratioP2
2187;SDS011;1100;52.014;8.540;2024-02-15T00:02:13;6.38;;;2.78;;
2187;SDS011;1100;52.014;8.540;2024-02-15T00:04:38;5.90;;;2.80;;
2187;SDS011;1100;52.014;8.540;2024-02-15T00:07:04;7.33;;;3.10;;
2187;SDS011;1100;52.014;8.540;2024-02-15T00:09:30;5.82;;;2.67;;
2187;SDS011;1100;52.014;8.540;2024-02-15T00:11:56;5.40;;;2.30;;
2187;SDS011;1100;52.014;8.540;2024-02-15T00:14:21;6.30;;;2.72;;
2187;SDS011;1100;52.014;8.540;2024-02-15T00:16:46;6.63;;;2.60;;
2187;SDS011;1100;52.014;8.540;2024-02-15T00:19:12;6.77;;;2.83;;
2187;SDS011;1100;52.014;8.540;2024-02-15T00:21:45;8.00;;;3.20;;
2187;SDS011;1100;52.014;8.540;2024-02-15T00:24:11;5.75;;;2.78;;
2187;SDS011;1100;52.014;8.540;2024-02-15T00:26:36;5.80;;;2.73;;
2187;SDS011;1100;52.014;8.540;2024-02-15T00:29:03;4.80;;;2.13;;
2187;SDS011;1100;52.014;8.540;2024-02-15T00:31:28;5.40;;;2.60;;
2187;SDS011;1100;52.014;8.540;2024-02-15T00:33:53;6.13;;;2.43;;
2187;SDS011;1100;52.014;8.540;2024-02-15T00:36:19;7.53;;;2.73;;
2187;SDS011;1100;52.014;8.540;2024-02-15T00:38:44;6.75;;;2.55;;
2187;SDS011;1100;52.014;8.540;2024-02-15T00:41:10;6.17;;;2.70;;
2187;SDS011;1100;52.014;8.540;2024-02-15T00:43:35;5.78;;;2.38;;
2187;SDS011;1100;52.014;8.540;2024-02-15T00:46:01;7.30;;;3.67;;
2187;SDS011;1100;52.014;8.540;2024-02-15T00:48:26;4.83;;;2.30;;
2187;SDS011;1100;52.014;8.540;2024-02-15T00:50:53;8.88;;;3.10;;
2187;SDS011;1100;52.014;8.540;2024-02-15T00:53:19;6.17;;;2.50;;
2187;SDS011;1100;52.014;8.540;2024-02-15T00:55:45;6.20;;;2.65;;
2187;SDS011;1100;52.014;8.540;2024-02-15T00:58:10;8.07;;;2.73;;
2187;SDS011;1100;52.014;8.540;2024-02-15T01:00:36;6.57;;;2.63;;
2187;SDS011;1100;52.014;8.540;2024-02-15T01:03:02;7.85;;;3.40;;
2187;SDS011;1100;52.014;8.540;2024-02-15T01:05:28;8.23;;;2.78;;
2187;SDS011;1100;52.014;8.540;2024-02-15T01:07:53;7.53;;;3.23;;
2187;SDS011;1100;52.014;8.540;2024-02-15T01:10:20;8.38;;;3.47;;
2187;SDS011;1100;52.014;8.540;2024-02-15T01:12:46;7.80;;;2.90;;
2187;SDS011;1100;52.014;8.540;2024-02-15T01:15:11;6.50;;;2.67;;
2187;SDS011;1100;52.014;8.540;2024-02-15T01:17:36;6.17;;;2.93;;
2187;SDS011;1100;52.014;8.540;2024-02-15T01:20:02;6.67;;;3.40;;
2187;SDS011;1100;52.014;8.540;2024-02-15T01:22:27;7.37;;;2.70;;
2187;SDS011;1100;52.014;8.540;2024-02-15T01:24:53;7.93;;;3.43;;
2187;SDS011;1100;52.014;8.540;2024-02-15T01:27:18;5.10;;;2.60;;
2187;SDS011;1100;52.014;8.540;2024-02-15T01:29:44;5.40;;;2.43;;
2187;SDS011;1100;52.014;8.540;2024-02-15T01:32:09;7.37;;;3.33;;
2187;SDS011;1100;52.014;8.540;2024-02-15T01:34:34;6.83;;;2.93;;
2187;SDS011;1100;52.014;8.540;2024-02-15T01:37:00;7.90;;;3.13;;
2187;SDS011;1100;52.014;8.540;2024-02-15T01:39:26;5.57;;;2.50;;
2187;SDS011;1100;52.014;8.540;2024-02-15T01:41:51;9.00;;;2.93;;
2187;SDS011;1100;52.014;8.540;2024-02-15T01:44:20;6.13;;;2.42;;
2187;SDS011;1100;52.014;8.540;2024-02-15T01:46:46;6.37;;;2.03;;
2187;SDS011;1100;52.014;8.540;2024-02-15T01:49:13;7.07;;;2.58;;
2187;SDS011;1100;52.014;8.540;2024-02-15T01:51:40;6.83;;;2.83;;
2187;SDS011;1100;52.014;8.540;2024-02-15T01:54:08;7.22;;;2.92;;
2187;SDS011;1100;52.014;8.540;2024-02-15T01:56:34;5.53;;;2.75;;
2187;SDS011;1100;52.014;8.540;2024-02-15T01:59:00;5.97;;;2.47;;
2187;SDS011;1100;52.014;8.540;2024-02-15T02:01:26;5.57;;;2.20;;
2187;SDS011;1100;52.014;8.540;2024-02-15T02:03:53;6.18;;;2.20;;
2187;SDS011;1100;52.014;8.540;2024-02-15T02:06:19;7.13;;;2.75;;
2187;SDS011;1100;52.014;8.540;2024-02-15T02:08:44;6.20;;;3.10;;
2187;SDS011;1100;52.014;8.540;2024-02-15T02:11:10;6.80;;;2.60;;
2187;SDS011;1100;52.014;8.540;2024-02-15T02:13:35;6.13;;;2.23;;
2187;SDS011;1100;52.014;8.540;2024-02-15T02:16:01;6.10;;;2.97;;
2187;SDS011;1100;52.014;8.540;2024-02-15T02:18:26;5.53;;;2.40;;
2187;SDS011;1100;52.014;8.540;2024-02-15T02:20:51;4.60;;;1.83;;
2187;SDS011;1100;52.014;8.540;2024-02-15T02:23:17;4.77;;;2.47;;
2187;SDS011;1100;52.014;8.540;2024-02-15T02:25:45;5.78;;;1.75;;
2187;SDS011;1100;52.014;8.540;2024-02-15T02:28:14;5.73;;;2.57;;
2187;SDS011;1100;52.014;8.540;2024-02-15T02:30:40;5.97;;;2.65;;
2187;SDS011;1100;52.014;8.540;2024-02-15T02:33:10;6.20;;;2.28;;
2187;SDS011;1100;52.014;8.540;2024-02-15T02:35:43;5.25;;;2.30;;
2187;SDS011;1100;52.014;8.540;2024-02-15T02:38:09;6.67;;;2.53;;
2187;SDS011;1100;52.014;8.540;2024-02-15T02:40:34;7.38;;;2.85;;
2187;SDS011;1100;52.014;8.540;2024-02-15T02:43:01;4.80;;;2.17;;
2187;SDS011;1100;52.014;8.540;2024-02-15T02:45:26;10.88;;;2.75;;
2187;SDS011;1100;52.014;8.540;2024-02-15T02:47:52;5.57;;;2.20;;
2187;SDS011;1100;52.014;8.540;2024-02-15T02:50:18;4.97;;;2.03;;
2187;SDS011;1100;52.014;8.540;2024-02-15T02:52:45;5.05;;;2.60;;
2187;SDS011;1100;52.014;8.540;2024-02-15T02:55:10;6.33;;;2.53;;
2187;SDS011;1100;52.014;8.540;2024-02-15T02:57:36;6.20;;;3.47;;
2187;SDS011;1100;52.014;8.540;2024-02-15T03:00:03;5.63;;;2.08;;
2187;SDS011;1100;52.014;8.540;2024-02-15T03:02:37;4.80;;;2.20;;
2187;SDS011;1100;52.014;8.540;2024-02-15T03:05:03;8.35;;;2.95;;
2187;SDS011;1100;52.014;8.540;2024-02-15T03:07:31;7.47;;;3.37;;
2187;SDS011;1100;52.014;8.540;2024-02-15T03:09:57;6.95;;;2.78;;
2187;SDS011;1100;52.014;8.540;2024-02-15T03:12:23;9.53;;;3.10;;
2187;SDS011;1100;52.014;8.540;2024-02-15T03:14:48;7.40;;;2.73;;
2187;SDS011;1100;52.014;8.540;2024-02-15T03:17:13;7.80;;;3.95;;
2187;SDS011;1100;52.014;8.540;2024-02-15T03:19:39;6.27;;;2.67;;
2187;SDS011;1100;52.014;8.540;2024-02-15T03:22:05;6.97;;;2.93;;
2187;SDS011;1100;52.014;8.540;2024-02-15T03:24:31;8.95;;;3.65;;
2187;SDS011;1100;52.014;8.540;2024-02-15T03:26:56;8.20;;;3.97;;
2187;SDS011;1100;52.014;8.540;2024-02-15T03:29:22;9.53;;;4.00;;
2187;SDS011;1100;52.014;8.540;2024-02-15T03:31:47;8.60;;;3.77;;
2187;SDS011;1100;52.014;8.540;2024-02-15T03:34:14;8.30;;;3.42;;
2187;SDS011;1100;52.014;8.540;2024-02-15T03:36:40;8.13;;;3.53;;
2187;SDS011;1100;52.014;8.540;2024-02-15T03:39:06;9.80;;;3.80;;
2187;SDS011;1100;52.014;8.540;2024-02-15T03:41:32;9.02;;;3.70;;
2187;SDS011;1100;52.014;8.540;2024-02-15T03:43:58;6.90;;;3.22;;
2187;SDS011;1100;52.014;8.540;2024-02-15T03:46:25;7.73;;;3.60;;
2187;SDS011;1100;52.014;8.540;2024-02-15T03:48:50;7.47;;;4.07;;
2187;SDS011;1100;52.014;8.540;2024-02-15T03:51:16;10.97;;;4.03;;
2187;SDS011;1100;52.014;8.540;2024-02-15T03:53:43;9.13;;;4.43;;
2187;SDS011;1100;52.014;8.540;2024-02-15T03:56:09;8.77;;;4.33;;
2187;SDS011;1100;52.014;8.540;2024-02-15T03:58:34;8.43;;;4.17;;
2187;SDS011;1100;52.014;8.540;2024-02-15T04:01:01;8.25;;;4.88;;
2187;SDS011;1100;52.014;8.540;2024-02-15T04:03:31;8.53;;;3.70;;
2187;SDS011;1100;52.014;8.540;2024-02-15T04:05:57;7.72;;;4.07;;
2187;SDS011;1100;52.014;8.540;2024-02-15T04:08:22;10.03;;;4.73;;
2187;SDS011;1100;52.014;8.540;2024-02-15T04:10:48;7.67;;;4.13;;
2187;SDS011;1100;52.014;8.540;2024-02-15T04:13:14;8.77;;;4.10;;
2187;SDS011;1100;52.014;8.540;2024-02-15T04:15:39;8.33;;;3.53;;
2187;SDS011;1100;52.014;8.540;2024-02-15T04:18:04;8.83;;;3.73;;
2187;SDS011;1100;52.014;8.540;2024-02-15T04:20:30;7.38;;;3.58;;
2187;SDS011;1100;52.014;8.540;2024-02-15T04:22:56;7.73;;;4.10;;
2187;SDS011;1100;52.014;8.540;2024-02-15T04:25:22;9.02;;;3.88;;
2187;SDS011;1100;52.014;8.540;2024-02-15T04:27:52;9.65;;;3.33;;
2187;SDS011;1100;52.014;8.540;2024-02-15T04:30:18;8.13;;;3.50;;
2187;SDS011;1100;52.014;8.540;2024-02-15T04:32:44;7.40;;;3.47;;
2187;SDS011;1100;52.014;8.540;2024-02-15T04:35:09;9.57;;;4.05;;
2187;SDS011;1100;52.014;8.540;2024-02-15T04:37:35;10.97;;;4.30;;
2187;SDS011;1100;52.014;8.540;2024-02-15T04:40:02;10.48;;;4.97;;
2187;SDS011;1100;52.014;8.540;2024-02-15T04:42:35;8.13;;;3.53;;
2187;SDS011;1100;52.014;8.540;2024-02-15T04:45:04;7.18;;;3.38;;
2187;SDS011;1100;52.014;8.540;2024-02-15T04:47:33;8.57;;;3.83;;
2187;SDS011;1100;52.014;8.540;2024-02-15T04:49:59;8.77;;;3.13;;
2187;SDS011;1100;52.014;8.540;2024-02-15T04:52:24;7.85;;;3.15;;
2187;SDS011;1100;52.014;8.540;2024-02-15T04:54:50;8.43;;;3.17;;
2187;SDS011;1100;52.014;8.540;2024-02-15T04:57:15;6.57;;;3.23;;
2187;SDS011;1100;52.014;8.540;2024-02-15T04:59:41;5.93;;;3.08;;
2187;SDS011;1100;52.014;8.540;2024-02-15T05:02:12;6.53;;;3.10;;
2187;SDS011;1100;52.014;8.540;2024-02-15T05:04:37;8.27;;;2.67;;
2187;SDS011;1100;52.014;8.540;2024-02-15T05:07:02;7.97;;;2.73;;
2187;SDS011;1100;52.014;8.540;2024-02-15T05:09:28;6.38;;;2.40;;
2187;SDS011;1100;52.014;8.540;2024-02-15T05:11:56;5.53;;;2.40;;
2187;SDS011;1100;52.014;8.540;2024-02-15T05:14:22;6.65;;;2.78;;
2187;SDS011;1100;52.014;8.540;2024-02-15T05:16:48;5.80;;;2.30;;
2187;SDS011;1100;52.014;8.540;2024-02-15T05:19:15;5.15;;;2.33;;
2187;SDS011;1100;52.014;8.540;2024-02-15T05:21:41;5.45;;;2.20;;
2187;SDS011;1100;52.014;8.540;2024-02-15T05:24:10;5.53;;;2.17;;
2187;SDS011;1100;52.014;8.540;2024-02-15T05:26:38;6.80;;;2.15;;
2187;SDS011;1100;52.014;8.540;2024-02-15T05:29:04;6.47;;;2.53;;
2187;SDS011;1100;52.014;8.540;2024-02-15T05:31:30;4.97;;;2.25;;
2187;SDS011;1100;52.014;8.540;2024-02-15T05:33:55;4.17;;;2.07;;
2187;SDS011;1100;52.014;8.540;2024-02-15T05:36:21;6.07;;;2.30;;
2187;SDS011;1100;52.014;8.540;2024-02-15T05:38:48;6.80;;;2.80;;
2187;SDS011;1100;52.014;8.540;2024-02-15T05:41:21;5.45;;;2.28;;
2187;SDS011;1100;52.014;8.540;2024-02-15T05:43:46;6.87;;;3.27;;
2187;SDS011;1100;52.014;8.540;2024-02-15T05:46:18;4.80;;;2.03;;
2187;SDS011;1100;52.014;8.540;2024-02-15T05:48:44;4.82;;;1.92;;
2187;SDS011;1100;52.014;8.540;2024-02-15T05:51:09;4.73;;;1.70;;
2187;SDS011;1100;52.014;8.540;2024-02-15T05:53:35;4.87;;;1.87;;
2187;SDS011;1100;52.014;8.540;2024-02-15T05:56:04;5.43;;;2.08;;
2187;SDS011;1100;52.014;8.540;2024-02-15T05:58:32;6.10;;;2.10;;
2187;SDS011;1100;52.014;8.540;2024-02-15T06:00:58;5.43;;;2.05;;
2187;SDS011;1100;52.014;8.540;2024-02-15T06:03:29;3.58;;;1.40;;
2187;SDS011;1100;52.014;8.540;2024-02-15T06:05:58;3.72;;;1.17;;
2187;SDS011;1100;52.014;8.540;2024-02-15T06:08:26;4.07;;;1.63;;
2187;SDS011;1100;52.014;8.540;2024-02-15T06:10:54;4.30;;;1.60;;
2187;SDS011;1100;52.014;8.540;2024-02-15T06:13:20;3.93;;;1.40;;
2187;SDS011;1100;52.014;8.540;2024-02-15T06:15:45;4.03;;;1.55;;
2187;SDS011;1100;52.014;8.540;2024-02-15T06:18:12;2.97;;;1.15;;
2187;SDS011;1100;52.014;8.540;2024-02-15T06:20:39;4.07;;;1.50;;
2187;SDS011;1100;52.014;8.540;2024-02-15T06:23:05;3.55;;;1.30;;
2187;SDS011;1100;52.014;8.540;2024-02-15T06:25:32;7.68;;;1.67;;
2187;SDS011;1100;52.014;8.540;2024-02-15T06:27:58;3.73;;;1.23;;
2187;SDS011;1100;52.014;8.540;2024-02-15T06:30:37;7.53;;;1.40;;
2187;SDS011;1100;52.014;8.540;2024-02-15T06:33:22;4.00;;;1.52;;
2187;SDS011;1100;52.014;8.540;2024-02-15T06:36:06;4.30;;;1.80;;
2187;SDS011;1100;52.014;8.540;2024-02-15T06:38:50;3.65;;;1.10;;
2187;SDS011;1100;52.014;8.540;2024-02-15T06:41:51;2.90;;;1.10;;
2187;SDS011;1100;52.014;8.540;2024-02-15T06:44:17;3.60;;;1.52;;
2187;SDS011;1100;52.014;8.540;2024-02-15T06:46:43;6.37;;;1.53;;
2187;SDS011;1100;52.014;8.540;2024-02-15T06:49:08;3.65;;;1.60;;
2187;SDS011;1100;52.014;8.540;2024-02-15T06:51:34;5.77;;;1.70;;
2187;SDS011;1100;52.014;8.540;2024-02-15T06:53:59;2.60;;;0.83;;
2187;SDS011;1100;52.014;8.540;2024-02-15T06:56:24;2.90;;;1.13;;
2187;SDS011;1100;52.014;8.540;2024-02-15T06:58:50;3.17;;;1.10;;
2187;SDS011;1100;52.014;8.540;2024-02-15T07:01:15;4.13;;;0.97;;
2187;SDS011;1100;52.014;8.540;2024-02-15T07:03:41;3.50;;;1.30;;
2187;SDS011;1100;52.014;8.540;2024-02-15T07:06:09;4.57;;;1.38;;
2187;SDS011;1100;52.014;8.540;2024-02-15T07:08:35;5.43;;;1.83;;
2187;SDS011;1100;52.014;8.540;2024-02-15T07:11:00;2.90;;;1.00;;
2187;SDS011;1100;52.014;8.540;2024-02-15T07:13:27;3.63;;;1.10;;
2187;SDS011;1100;52.014;8.540;2024-02-15T07:15:52;3.53;;;1.10;;
2187;SDS011;1100;52.014;8.540;2024-02-15T07:18:17;4.50;;;1.53;;
2187;SDS011;1100;52.014;8.540;2024-02-15T07:20:47;3.92;;;1.20;;
2187;SDS011;1100;52.014;8.540;2024-02-15T07:23:12;3.80;;;1.38;;
2187;SDS011;1100;52.014;8.540;2024-02-15T07:25:38;3.83;;;1.60;;
2187;SDS011;1100;52.014;8.540;2024-02-15T07:28:04;3.22;;;0.93;;
2187;SDS011;1100;52.014;8.540;2024-02-15T07:30:29;2.57;;;0.63;;
2187;SDS011;1100;52.014;8.540;2024-02-15T07:32:56;4.38;;;1.42;;
2187;SDS011;1100;52.014;8.540;2024-02-15T07:35:21;4.40;;;1.50;;
2187;SDS011;1100;52.014;8.540;2024-02-15T07:37:53;3.75;;;1.40;;
2187;SDS011;1100;52.014;8.540;2024-02-15T07:40:21;4.18;;;0.98;;
2187;SDS011;1100;52.014;8.540;2024-02-15T07:42:47;4.30;;;1.63;;
2187;SDS011;1100;52.014;8.540;2024-02-15T07:45:13;4.90;;;1.25;;
2187;SDS011;1100;52.014;8.540;2024-02-15T07:47:39;2.23;;;0.73;;
2187;SDS011;1100;52.014;8.540;2024-02-15T07:50:04;3.70;;;1.20;;
2187;SDS011;1100;52.014;8.540;2024-02-15T07:52:30;3.35;;;1.08;;
2187;SDS011;1100;52.014;8.540;2024-02-15T07:54:56;3.60;;;1.40;;
2187;SDS011;1100;52.014;8.540;2024-02-15T07:57:21;2.63;;;0.80;;
2187;SDS011;1100;52.014;8.540;2024-02-15T07:59:46;2.90;;;1.00;;
2187;SDS011;1100;52.014;8.540;2024-02-15T08:02:14;2.20;;;0.70;;
2187;SDS011;1100;52.014;8.540;2024-02-15T08:04:43;3.00;;;0.50;;
2187;SDS011;1100;52.014;8.540;2024-02-15T08:07:09;3.03;;;1.02;;
2187;SDS011;1100;52.014;8.540;2024-02-15T08:09:36;3.10;;;0.90;;
2187;SDS011;1100;52.014;8.540;2024-02-15T08:12:02;3.58;;;0.90;;
2187;SDS011;1100;52.014;8.540;2024-02-15T08:14:28;2.70;;;0.70;;
2187;SDS011;1100;52.014;8.540;2024-02-15T08:16:53;5.57;;;1.10;;
2187;SDS011;1100;52.014;8.540;2024-02-15T08:19:20;3.72;;;1.35;;
2187;SDS011;1100;52.014;8.540;2024-02-15T08:21:47;2.80;;;0.85;;
2187;SDS011;1100;52.014;8.540;2024-02-15T08:24:15;3.80;;;0.85;;
2187;SDS011;1100;52.014;8.540;2024-02-15T08:26:42;4.20;;;1.20;;
2187;SDS011;1100;52.014;8.540;2024-02-15T08:29:07;3.63;;;0.98;;
2187;SDS011;1100;52.014;8.540;2024-02-15T08:31:34;2.72;;;1.00;;
2187;SDS011;1100;52.014;8.540;2024-02-15T08:34:01;2.85;;;0.70;;
2187;SDS011;1100;52.014;8.540;2024-02-15T08:36:27;4.60;;;0.77;;
2187;SDS011;1100;52.014;8.540;2024-02-15T08:38:52;2.80;;;0.87;;
2187;SDS011;1100;52.014;8.540;2024-02-15T08:41:19;3.63;;;1.00;;
2187;SDS011;1100;52.014;8.540;2024-02-15T08:43:46;2.17;;;0.60;;
2187;SDS011;1100;52.014;8.540;2024-02-15T08:46:13;2.72;;;1.02;;
2187;SDS011;1100;52.014;8.540;2024-02-15T08:48:39;2.50;;;0.57;;
2187;SDS011;1100;52.014;8.540;2024-02-15T08:51:04;3.00;;;0.80;;
2187;SDS011;1100;52.014;8.540;2024-02-15T08:53:31;2.97;;;0.70;;
2187;SDS011;1100;52.014;8.540;2024-02-15T08:55:57;2.80;;;1.00;;
2187;SDS011;1100;52.014;8.540;2024-02-15T08:58:22;2.92;;;0.68;;
2187;SDS011;1100;52.014;8.540;2024-02-15T09:00:48;3.90;;;1.43;;
2187;SDS011;1100;52.014;8.540;2024-02-15T09:03:13;4.83;;;0.80;;
2187;SDS011;1100;52.014;8.540;2024-02-15T09:05:42;2.90;;;0.98;;
2187;SDS011;1100;52.014;8.540;2024-02-15T09:08:07;2.50;;;0.70;;
2187;SDS011;1100;52.014;8.540;2024-02-15T09:10:33;4.30;;;0.83;;
2187;SDS011;1100;52.014;8.540;2024-02-15T09:12:58;2.90;;;0.80;;
2187;SDS011;1100;52.014;8.540;2024-02-15T09:15:24;2.20;;;0.80;;
2187;SDS011;1100;52.014;8.540;2024-02-15T09:17:50;1.95;;;0.50;;
2187;SDS011;1100;52.014;8.540;2024-02-15T09:20:15;3.77;;;1.07;;
2187;SDS011;1100;52.014;8.540;2024-02-15T09:22:52;2.93;;;1.07;;
2187;SDS011;1100;52.014;8.540;2024-02-15T09:25:22;3.22;;;1.17;;
2187;SDS011;1100;52.014;8.540;2024-02-15T09:27:50;2.38;;;1.00;;
2187;SDS011;1100;52.014;8.540;2024-02-15T09:30:16;1.85;;;0.47;;
2187;SDS011;1100;52.014;8.540;2024-02-15T09:32:43;2.15;;;0.65;;
2187;SDS011;1100;52.014;8.540;2024-02-15T09:35:09;2.50;;;0.87;;
2187;SDS011;1100;52.014;8.540;2024-02-15T09:37:37;2.25;;;0.60;;
2187;SDS011;1100;52.014;8.540;2024-02-15T09:40:12;2.92;;;0.82;;
2187;SDS011;1100;52.014;8.540;2024-02-15T09:42:40;2.47;;;0.77;;
2187;SDS011;1100;52.014;8.540;2024-02-15T09:45:06;2.23;;;0.60;;
2187;SDS011;1100;52.014;8.540;2024-02-15T09:47:36;2.20;;;0.70;;
2187;SDS011;1100;52.014;8.540;2024-02-15T09:50:02;3.67;;;1.05;;
2187;SDS011;1100;52.014;8.540;2024-02-15T09:52:31;2.20;;;0.98;;
2187;SDS011;1100;52.014;8.540;2024-02-15T09:55:00;2.50;;;0.80;;
2187;SDS011;1100;52.014;8.540;2024-02-15T09:57:27;2.58;;;0.93;;
2187;SDS011;1100;52.014;8.540;2024-02-15T09:59:54;2.05;;;0.47;;
2187;SDS011;1100;52.014;8.540;2024-02-15T10:02:19;2.03;;;0.60;;
2187;SDS011;1100;52.014;8.540;2024-02-15T10:04:46;3.38;;;1.00;;
2187;SDS011;1100;52.014;8.540;2024-02-15T10:07:12;1.90;;;0.60;;
2187;SDS011;1100;52.014;8.540;2024-02-15T10:09:38;3.63;;;0.80;;
2187;SDS011;1100;52.014;8.540;2024-02-15T10:12:07;2.08;;;0.70;;
2187;SDS011;1100;52.014;8.540;2024-02-15T10:14:34;2.17;;;0.60;;
2187;SDS011;1100;52.014;8.540;2024-02-15T10:17:05;3.37;;;0.60;;
2187;SDS011;1100;52.014;8.540;2024-02-15T10:19:34;5.78;;;0.80;;
2187;SDS011;1100;52.014;8.540;2024-02-15T10:22:05;3.80;;;1.20;;
2187;SDS011;1100;52.014;8.540;2024-02-15T10:24:31;2.63;;;0.70;;
2187;SDS011;1100;52.014;8.540;2024-02-15T10:27:03;2.07;;;0.57;;
2187;SDS011;1100;52.014;8.540;2024-02-15T10:29:32;2.38;;;0.90;;
2187;SDS011;1100;52.014;8.540;2024-02-15T10:32:02;3.60;;;1.03;;
2187;SDS011;1100;52.014;8.540;2024-02-15T10:34:29;2.50;;;0.70;;
2187;SDS011;1100;52.014;8.540;2024-02-15T10:37:11;2.58;;;1.02;;
2187;SDS011;1100;52.014;8.540;2024-02-15T10:39:38;1.88;;;0.50;;
2187;SDS011;1100;52.014;8.540;2024-02-15T10:42:03;2.27;;;0.70;;
2187;SDS011;1100;52.014;8.540;2024-02-15T10:44:32;5.65;;;0.68;;
2187;SDS011;1100;52.014;8.540;2024-02-15T10:46:59;2.67;;;0.60;;
2187;SDS011;1100;52.014;8.540;2024-02-15T10:49:31;2.93;;;0.93;;
2187;SDS011;1100;52.014;8.540;2024-02-15T10:51:57;3.85;;;1.17;;
2187;SDS011;1100;52.014;8.540;2024-02-15T10:57:22;2.33;;;0.43;;
2187;SDS011;1100;52.014;8.540;2024-02-15T11:04:55;2.42;;;0.75;;
2187;SDS011;1100;52.014;8.540;2024-02-15T11:07:30;2.03;;;0.65;;
2187;SDS011;1100;52.014;8.540;2024-02-15T11:09:56;5.35;;;1.00;;
2187;SDS011;1100;52.014;8.540;2024-02-15T11:12:23;2.20;;;0.70;;
2187;SDS011;1100;52.014;8.540;2024-02-15T11:14:49;2.50;;;0.70;;
2187;SDS011;1100;52.014;8.540;2024-02-15T11:23:00;2.35;;;0.68;;
2187;SDS011;1100;52.014;8.540;2024-02-15T11:25:36;2.47;;;0.80;;
2187;SDS011;1100;52.014;8.540;2024-02-15T11:30:47;2.20;;;0.60;;
2187;SDS011;1100;52.014;8.540;2024-02-15T11:36:35;5.65;;;0.88;;
2187;SDS011;1100;52.014;8.540;2024-02-15T11:38:56;2.40;;;0.75;;
2187;SDS011;1100;52.014;8.540;2024-02-15T11:41:21;2.90;;;0.80;;
2187;SDS011;1100;52.014;8.540;2024-02-15T11:43:49;2.83;;;0.73;;
2187;SDS011;1100;52.014;8.540;2024-02-15T11:46:22;2.75;;;0.57;;
2187;SDS011;1100;52.014;8.540;2024-02-15T11:48:55;2.97;;;1.08;;
2187;SDS011;1100;52.014;8.540;2024-02-15T11:51:25;1.88;;;0.47;;
2187;SDS011;1100;52.014;8.540;2024-02-15T11:56:52;2.20;;;0.67;;
2187;SDS011;1100;52.014;8.540;2024-02-15T11:59:29;2.08;;;0.60;;
2187;SDS011;1100;52.014;8.540;2024-02-15T12:01:57;2.30;;;0.70;;
2187;SDS011;1100;52.014;8.540;2024-02-15T12:04:41;2.45;;;0.80;;
2187;SDS011;1100;52.014;8.540;2024-02-15T12:07:26;3.20;;;0.80;;
2187;SDS011;1100;52.014;8.540;2024-02-15T12:10:19;2.13;;;0.70;;
2187;SDS011;1100;52.014;8.540;2024-02-15T12:13:03;1.30;;;0.30;;
2187;SDS011;1100;52.014;8.540;2024-02-15T12:16:00;2.17;;;0.68;;
2187;SDS011;1100;52.014;8.540;2024-02-15T12:18:45;2.22;;;0.63;;
2187;SDS011;1100;52.014;8.540;2024-02-15T12:21:16;2.17;;;0.82;;
2187;SDS011;1100;52.014;8.540;2024-02-15T12:23:47;1.57;;;0.40;;
2187;SDS011;1100;52.014;8.540;2024-02-15T12:26:14;1.65;;;0.50;;
2187;SDS011;1100;52.014;8.540;2024-02-15T12:28:43;2.25;;;0.45;;
2187;SDS011;1100;52.014;8.540;2024-02-15T12:31:09;2.97;;;0.53;;
2187;SDS011;1100;52.014;8.540;2024-02-15T12:33:35;2.65;;;0.30;;
2187;SDS011;1100;52.014;8.540;2024-02-15T12:36:04;2.37;;;0.70;;
2187;SDS011;1100;52.014;8.540;2024-02-15T12:38:31;3.30;;;0.50;;
2187;SDS011;1100;52.014;8.540;2024-02-15T12:40:59;1.90;;;0.50;;
2187;SDS011;1100;52.014;8.540;2024-02-15T12:43:27;2.08;;;0.50;;
2187;SDS011;1100;52.014;8.540;2024-02-15T12:45:52;1.80;;;0.50;;
2187;SDS011;1100;52.014;8.540;2024-02-15T12:48:19;5.10;;;0.93;;
2187;SDS011;1100;52.014;8.540;2024-02-15T12:50:44;2.20;;;0.40;;
2187;SDS011;1100;52.014;8.540;2024-02-15T12:53:11;1.77;;;0.50;;
2187;SDS011;1100;52.014;8.540;2024-02-15T12:55:36;2.77;;;0.70;;
2187;SDS011;1100;52.014;8.540;2024-02-15T12:58:03;4.95;;;0.60;;
2187;SDS011;1100;52.014;8.540;2024-02-15T13:00:33;2.72;;;0.60;;
2187;SDS011;1100;52.014;8.540;2024-02-15T13:03:04;1.92;;;0.55;;
2187;SDS011;1100;52.014;8.540;2024-02-15T13:05:33;1.40;;;0.20;;
2187;SDS011;1100;52.014;8.540;2024-02-15T13:07:59;4.50;;;0.50;;
2187;SDS011;1100;52.014;8.540;2024-02-15T13:10:27;4.20;;;0.60;;
2187;SDS011;1100;52.014;8.540;2024-02-15T13:12:54;4.00;;;0.77;;
2187;SDS011;1100;52.014;8.540;2024-02-15T13:15:20;1.93;;;0.53;;
2187;SDS011;1100;52.014;8.540;2024-02-15T13:17:47;2.08;;;0.70;;
2187;SDS011;1100;52.014;8.540;2024-02-15T13:20:16;1.40;;;0.30;;
2187;SDS011;1100;52.014;8.540;2024-02-15T13:22:45;1.70;;;0.50;;
2187;SDS011;1100;52.014;8.540;2024-02-15T13:25:12;1.98;;;0.45;;
2187;SDS011;1100;52.014;8.540;2024-02-15T13:27:41;1.07;;;0.20;;
2187;SDS011;1100;52.014;8.540;2024-02-15T13:30:08;3.22;;;0.55;;
2187;SDS011;1100;52.014;8.540;2024-02-15T13:32:37;1.45;;;0.40;;
2187;SDS011;1100;52.014;8.540;2024-02-15T13:35:06;2.28;;;0.60;;
2187;SDS011;1100;52.014;8.540;2024-02-15T13:37:47;2.78;;;0.55;;
2187;SDS011;1100;52.014;8.540;2024-02-15T13:40:13;1.80;;;0.67;;
2187;SDS011;1100;52.014;8.540;2024-02-15T13:45:14;2.80;;;0.93;;
2187;SDS011;1100;52.014;8.540;2024-02-15T13:47:39;2.07;;;0.40;;
2187;SDS011;1100;52.014;8.540;2024-02-15T13:50:04;1.83;;;0.50;;
2187;SDS011;1100;52.014;8.540;2024-02-15T13:52:30;1.70;;;0.50;;
2187;SDS011;1100;52.014;8.540;2024-02-15T13:54:56;2.73;;;0.97;;
2187;SDS011;1100;52.014;8.540;2024-02-15T13:57:21;1.75;;;0.43;;
2187;SDS011;1100;52.014;8.540;2024-02-15T13:59:47;1.90;;;0.60;;
2187;SDS011;1100;52.014;8.540;2024-02-15T14:02:13;1.52;;;0.40;;
2187;SDS011;1100;52.014;8.540;2024-02-15T14:04:39;1.67;;;0.50;;
2187;SDS011;1100;52.014;8.540;2024-02-15T14:07:05;1.53;;;0.40;;
2187;SDS011;1100;52.014;8.540;2024-02-15T14:09:30;1.40;;;0.30;;
2187;SDS011;1100;52.014;8.540;2024-02-15T14:11:55;1.30;;;0.40;;
2187;SDS011;1100;52.014;8.540;2024-02-15T14:14:21;2.05;;;0.60;;
2187;SDS011;1100;52.014;8.540;2024-02-15T14:16:47;3.77;;;0.80;;
2187;SDS011;1100;52.014;8.540;2024-02-15T14:19:12;2.50;;;0.50;;
2187;SDS011;1100;52.014;8.540;2024-02-15T14:21:38;1.45;;;0.40;;
2187;SDS011;1100;52.014;8.540;2024-02-15T14:24:05;3.50;;;0.80;;
2187;SDS011;1100;52.014;8.540;2024-02-15T14:26:33;3.13;;;0.63;;
2187;SDS011;1100;52.014;8.540;2024-02-15T14:28:58;1.57;;;0.53;;
2187;SDS011;1100;52.014;8.540;2024-02-15T14:31:26;1.90;;;0.55;;
2187;SDS011;1100;52.014;8.540;2024-02-15T14:34:10;1.58;;;0.38;;
2187;SDS011;1100;52.014;8.540;2024-02-15T14:36:35;1.37;;;0.30;;
2187;SDS011;1100;52.014;8.540;2024-02-15T14:39:01;1.60;;;0.40;;
2187;SDS011;1100;52.014;8.540;2024-02-15T14:41:26;4.40;;;0.80;;
2187;SDS011;1100;52.014;8.540;2024-02-15T14:43:53;1.70;;;0.35;;
2187;SDS011;1100;52.014;8.540;2024-02-15T14:46:19;2.42;;;0.50;;
2187;SDS011;1100;52.014;8.540;2024-02-15T14:48:45;2.05;;;0.80;;
2187;SDS011;1100;52.014;8.540;2024-02-15T14:51:14;2.17;;;0.60;;
2187;SDS011;1100;52.014;8.540;2024-02-15T14:53:40;1.75;;;0.40;;
2187;SDS011;1100;52.014;8.540;2024-02-15T14:56:06;1.85;;;0.55;;
2187;SDS011;1100;52.014;8.540;2024-02-15T14:58:32;2.03;;;0.43;;
2187;SDS011;1100;52.014;8.540;2024-02-15T15:00:58;1.77;;;0.40;;
2187;SDS011;1100;52.014;8.540;2024-02-15T15:03:23;1.70;;;0.50;;
2187;SDS011;1100;52.014;8.540;2024-02-15T15:05:48;2.97;;;0.50;;
2187;SDS011;1100;52.014;8.540;2024-02-15T15:08:32;3.03;;;0.40;;
2187;SDS011;1100;52.014;8.540;2024-02-15T15:11:16;1.30;;;0.37;;
2187;SDS011;1100;52.014;8.540;2024-02-15T15:14:00;2.28;;;0.50;;
2187;SDS011;1100;52.014;8.540;2024-02-15T15:16:27;2.17;;;0.43;;
2187;SDS011;1100;52.014;8.540;2024-02-15T15:18:53;1.50;;;0.30;;
2187;SDS011;1100;52.014;8.540;2024-02-15T15:21:18;1.90;;;0.40;;
2187;SDS011;1100;52.014;8.540;2024-02-15T15:23:44;1.58;;;0.30;;
2187;SDS011;1100;52.014;8.540;2024-02-15T15:26:10;1.75;;;0.43;;
2187;SDS011;1100;52.014;8.540;2024-02-15T15:28:39;1.83;;;0.40;;
2187;SDS011;1100;52.014;8.540;2024-02-15T15:31:05;3.17;;;0.50;;
2187;SDS011;1100;52.014;8.540;2024-02-15T15:33:32;2.67;;;0.30;;
2187;SDS011;1100;52.014;8.540;2024-02-15T15:35:58;2.15;;;0.70;;
2187;SDS011;1100;52.014;8.540;2024-02-15T15:38:26;2.38;;;0.60;;
2187;SDS011;1100;52.014;8.540;2024-02-15T15:40:51;3.23;;;0.50;;
2187;SDS011;1100;52.014;8.540;2024-02-15T15:43:17;5.38;;;0.70;;